createdAt,value
2023-05-19T02:38:30.244Z,98575.76
2023-05-19T02:40:57.809Z,98571.09
2023-05-19T02:43:24.871Z,98564.86
2023-05-19T02:45:52.035Z,98563.83
2023-05-19T02:48:19.187Z,98557.04
2023-05-19T02:50:46.350Z,98556.48
2023-05-19T02:53:13.525Z,98551.02
2023-05-19T02:55:40.876Z,98551.04
2023-05-19T02:58:07.895Z,98555.55
2023-05-19T03:00:35.146Z,98564.00
2023-05-19T03:03:03.284Z,98568.23
2023-05-19T03:05:31.908Z,98573.55
2023-05-19T03:07:59.206Z,98574.45
2023-05-19T03:10:26.543Z,98572.04
2023-05-19T03:12:53.862Z,98567.77
2023-05-19T03:15:23.546Z,98563.09
2023-05-19T03:17:51.329Z,98564.17
2023-05-19T03:20:18.876Z,98564.98
2023-05-19T03:22:46.174Z,98560.89
2023-05-19T03:25:13.678Z,98560.95
2023-05-19T03:27:41.013Z,98561.79
2023-05-19T03:30:09.443Z,98562.77
2023-05-19T03:32:39.433Z,98568.96
2023-05-19T03:35:07.293Z,98571.38
2023-05-19T03:37:34.680Z,98575.64
2023-05-19T03:40:02.733Z,98573.86
2023-05-19T03:42:30.398Z,98575.98
2023-05-19T03:44:57.585Z,98581.83
2023-05-19T03:47:25.257Z,98584.72
2023-05-19T03:49:52.394Z,98584.58
2023-05-19T03:52:19.517Z,98583.02
2023-05-19T03:54:46.627Z,98582.39
2023-05-19T03:57:14.725Z,98581.30
2023-05-19T03:59:42.479Z,98579.99
2023-05-19T04:02:10.190Z,98583.22
2023-05-19T04:04:38.519Z,98594.42
2023-05-19T04:07:05.700Z,98599.15
2023-05-19T04:09:35.783Z,98605.30
2023-05-19T04:12:05.633Z,98604.14
2023-05-19T04:14:32.846Z,98601.77
2023-05-19T04:17:00.582Z,98601.15
2023-05-19T04:19:27.981Z,98597.56
2023-05-19T04:21:55.348Z,98587.77
2023-05-19T04:24:23.126Z,98584.52
2023-05-19T04:26:50.440Z,98581.33
2023-05-19T04:29:18.701Z,98581.77
2023-05-19T04:31:46.486Z,98581.27
2023-05-19T04:34:13.862Z,98586.15
2023-05-19T04:36:42.091Z,98586.38
2023-05-19T04:39:11.953Z,98583.60
2023-05-19T04:41:40.810Z,98580.33
2023-05-19T04:44:09.786Z,98583.57
2023-05-19T04:46:37.096Z,98581.10
2023-05-19T04:49:04.196Z,98583.42
2023-05-19T04:51:31.838Z,98581.14
2023-05-19T04:54:01.888Z,98581.80
2023-05-19T04:56:29.304Z,98587.64
2023-05-19T04:58:56.360Z,98592.27
2023-05-19T05:01:26.677Z,98590.63
2023-05-19T05:03:56.128Z,98592.75
2023-05-19T05:06:23.366Z,98593.11
2023-05-19T05:08:51.683Z,98593.80
2023-05-19T05:11:19.094Z,98592.79
2023-05-19T05:13:46.708Z,98596.84
2023-05-19T05:16:18.752Z,98599.23
2023-05-19T05:18:47.218Z,98602.54
2023-05-19T05:21:15.895Z,98600.77
2023-05-19T05:23:43.632Z,98599.02
2023-05-19T05:26:18.488Z,98602.95
2023-05-19T05:28:46.119Z,98598.54
2023-05-19T05:33:54.307Z,98598.55
2023-05-19T05:36:21.397Z,98598.75
2023-05-19T05:38:48.306Z,98599.72
2023-05-19T05:41:18.648Z,98606.94
2023-05-19T05:43:51.051Z,98609.52
2023-05-19T05:46:19.203Z,98605.95
2023-05-19T05:48:46.839Z,98605.39
2023-05-19T05:51:15.777Z,98605.35
2023-05-19T05:53:50.245Z,98608.15
2023-05-19T05:56:17.637Z,98613.40
2023-05-19T05:58:45.378Z,98612.14
2023-05-19T06:01:12.628Z,98614.19
2023-05-19T06:03:42.951Z,98617.34
2023-05-19T06:06:12.228Z,98617.97
2023-05-19T06:08:39.452Z,98617.88
2023-05-19T06:11:10.244Z,98617.35
2023-05-19T06:13:37.734Z,98622.07
2023-05-19T06:16:06.481Z,98616.70
2023-05-19T06:18:34.199Z,98618.04
2023-05-19T06:21:02.156Z,98621.85
2023-05-19T06:23:31.458Z,98621.84
2023-05-19T06:25:58.826Z,98619.55
2023-05-19T06:28:26.087Z,98622.88
2023-05-19T06:30:53.228Z,98626.79
2023-05-19T06:33:21.034Z,98632.21
2023-05-19T06:35:48.130Z,98632.12
2023-05-19T06:38:15.097Z,98630.65
2023-05-19T06:40:42.720Z,98629.12
2023-05-19T06:43:09.902Z,98628.22
2023-05-19T06:45:36.936Z,98625.46
2023-05-19T06:48:05.249Z,98622.96
2023-05-19T06:50:32.444Z,98621.58
2023-05-19T06:52:59.893Z,98617.89
2023-05-19T06:55:27.459Z,98618.73
2023-05-19T06:57:55.170Z,98624.02
2023-05-19T07:00:23.824Z,98623.83
2023-05-19T07:02:51.780Z,98627.23
2023-05-19T07:05:19.408Z,98628.30
2023-05-19T07:07:46.837Z,98631.01
2023-05-19T07:10:14.053Z,98627.27
2023-05-19T07:12:41.441Z,98625.21
2023-05-19T07:15:08.628Z,98622.72
2023-05-19T07:17:35.996Z,98621.63
2023-05-19T07:20:07.054Z,98619.84
2023-05-19T07:22:37.394Z,98615.06
2023-05-19T07:25:04.731Z,98615.20
2023-05-19T07:27:31.736Z,98613.70
2023-05-19T07:29:59.426Z,98611.55
2023-05-19T07:32:26.864Z,98610.35
2023-05-19T07:34:54.193Z,98613.54
2023-05-19T07:37:21.322Z,98616.10
2023-05-19T07:39:49.025Z,98618.86
2023-05-19T07:42:16.245Z,98613.98
2023-05-19T07:44:43.554Z,98613.36
2023-05-19T07:47:11.352Z,98611.54
2023-05-19T07:49:38.941Z,98609.33
2023-05-19T07:52:06.667Z,98614.64
2023-05-19T07:54:33.985Z,98621.15
2023-05-19T07:57:01.376Z,98618.35
2023-05-19T07:59:29.603Z,98621.35
2023-05-19T08:01:57.222Z,98619.90
2023-05-19T08:04:24.542Z,98617.61
2023-05-19T08:07:01.073Z,98614.96
2023-05-19T08:12:09.638Z,98617.42
2023-05-19T08:14:39.946Z,98610.83
2023-05-19T08:17:07.209Z,98614.84
2023-05-19T08:19:34.275Z,98619.45
2023-05-19T08:22:01.802Z,98627.02
2023-05-19T08:24:33.398Z,98621.62
2023-05-19T08:27:00.736Z,98620.54
2023-05-19T08:29:29.271Z,98618.39
2023-05-19T08:31:56.647Z,98620.45
2023-05-19T08:34:24.012Z,98620.14
2023-05-19T08:36:51.517Z,98620.27
2023-05-19T08:39:24.514Z,98618.55
2023-05-19T08:41:51.491Z,98617.77
2023-05-19T08:44:19.213Z,98613.31
2023-05-19T08:46:48.245Z,98617.83
2023-05-19T08:49:25.478Z,98617.98
2023-05-19T08:52:15.841Z,98621.30
2023-05-19T08:55:01.506Z,98620.59
2023-05-19T08:57:29.775Z,98625.77
2023-05-19T08:59:58.070Z,98625.61
2023-05-19T09:02:26.025Z,98629.02
2023-05-19T09:04:54.249Z,98629.30
2023-05-19T09:07:23.517Z,98627.30
2023-05-19T09:09:50.691Z,98631.73
2023-05-19T09:12:18.413Z,98629.54
2023-05-19T09:14:46.210Z,98630.28
2023-05-19T09:17:13.346Z,98628.52
2023-05-19T09:19:48.403Z,98630.29
2023-05-19T09:22:18.894Z,98636.40
2023-05-19T09:24:47.528Z,98633.86
2023-05-19T09:27:21.967Z,98634.47
2023-05-19T09:29:50.759Z,98634.64
2023-05-19T09:32:28.119Z,98637.98
2023-05-19T09:34:55.394Z,98634.73
2023-05-19T09:40:16.184Z,98630.29
2023-05-19T09:42:44.685Z,98633.92
2023-05-19T09:45:12.475Z,98636.88
2023-05-19T09:47:41.707Z,98631.83
2023-05-19T09:50:11.344Z,98633.60
2023-05-19T09:52:40.061Z,98632.26
2023-05-19T09:55:11.805Z,98630.02
2023-05-19T09:57:40.670Z,98629.63
2023-05-19T10:00:13.867Z,98627.57
2023-05-19T10:02:46.796Z,98626.05
2023-05-19T10:05:20.811Z,98630.14
2023-05-19T10:07:51.794Z,98629.98
2023-05-19T10:10:22.686Z,98631.27
2023-05-19T10:12:51.083Z,98635.84
2023-05-19T10:15:22.906Z,98625.04
2023-05-19T10:17:51.630Z,98625.17
2023-05-19T10:20:19.277Z,98619.69
2023-05-19T10:22:47.028Z,98621.02
2023-05-19T10:25:15.667Z,98621.86
2023-05-19T10:27:48.696Z,98618.87
2023-05-19T10:30:21.142Z,98618.52
2023-05-19T10:32:49.827Z,98617.52
2023-05-19T10:35:36.242Z,98618.73
2023-05-19T10:38:28.797Z,98620.32
2023-05-19T10:41:22.834Z,98616.65
2023-05-19T10:44:02.077Z,98617.71
2023-05-19T10:46:30.660Z,98617.13
2023-05-19T10:48:58.013Z,98616.84
2023-05-19T10:51:32.593Z,98616.71
2023-05-19T10:54:47.172Z,98612.70
2023-05-19T10:57:17.895Z,98618.23
2023-05-19T10:59:45.173Z,98615.92
2023-05-19T11:02:41.682Z,98615.91
2023-05-19T11:05:15.163Z,98618.25
2023-05-19T11:07:46.662Z,98619.00
2023-05-19T11:10:14.032Z,98614.40
2023-05-19T11:12:43.570Z,98616.70
2023-05-19T11:15:14.138Z,98618.23
2023-05-19T11:17:42.946Z,98613.21
2023-05-19T11:20:23.273Z,98612.41
2023-05-19T11:23:11.819Z,98613.77
2023-05-19T11:25:42.266Z,98615.88
2023-05-19T11:28:14.949Z,98614.60
2023-05-19T11:30:46.896Z,98614.48
2023-05-19T11:33:14.644Z,98614.45
2023-05-19T11:35:44.248Z,98616.62
2023-05-19T11:38:12.212Z,98616.21
2023-05-19T11:40:40.061Z,98615.47
2023-05-19T11:43:07.277Z,98617.08
2023-05-19T11:45:35.486Z,98620.48
2023-05-19T11:48:03.625Z,98620.34
2023-05-19T11:50:31.961Z,98619.16
2023-05-19T11:53:01.766Z,98620.31
2023-05-19T11:55:50.147Z,98617.87
2023-05-19T11:58:17.686Z,98618.92
2023-05-19T12:00:48.015Z,98620.77
2023-05-19T12:03:17.817Z,98619.27
2023-05-19T12:05:48.730Z,98620.48
2023-05-19T12:08:19.064Z,98622.09
2023-05-19T12:10:52.195Z,98622.45
2023-05-19T12:13:20.234Z,98624.17
2023-05-19T12:15:49.563Z,98627.63
2023-05-19T12:18:16.545Z,98621.13
2023-05-19T12:20:46.847Z,98621.55
2023-05-19T12:23:14.893Z,98617.69
2023-05-19T12:25:44.900Z,98615.11
2023-05-19T12:28:12.866Z,98612.08
2023-05-19T12:30:39.861Z,98611.63
2023-05-19T12:33:07.248Z,98609.34
2023-05-19T12:35:38.120Z,98609.78
2023-05-19T12:38:06.719Z,98608.15
2023-05-19T12:40:36.271Z,98605.66
2023-05-19T12:43:04.433Z,98605.73
2023-05-19T12:45:36.667Z,98606.48
2023-05-19T12:48:06.031Z,98604.77
2023-05-19T12:50:34.908Z,98604.17
2023-05-19T12:53:02.355Z,98604.34
2023-05-19T12:55:30.302Z,98603.29
2023-05-19T12:57:59.086Z,98604.64
2023-05-19T13:00:30.260Z,98598.18
2023-05-19T13:03:06.122Z,98603.77
2023-05-19T13:05:38.602Z,98603.46
2023-05-19T13:08:07.270Z,98604.70
2023-05-19T13:10:36.233Z,98600.30
2023-05-19T13:13:04.937Z,98600.89
2023-05-19T13:15:34.711Z,98599.80
2023-05-19T13:18:04.462Z,98596.30
2023-05-19T13:20:32.234Z,98592.95
2023-05-19T13:23:01.000Z,98590.20
2023-05-19T13:25:28.649Z,98589.29
2023-05-19T13:27:57.139Z,98593.31
2023-05-19T13:30:24.626Z,98593.48
2023-05-19T13:32:52.822Z,98594.42
2023-05-19T13:35:20.724Z,98591.99
2023-05-19T13:37:49.392Z,98587.34
2023-05-19T13:40:17.598Z,98587.52
2023-05-19T13:42:45.603Z,98591.27
2023-05-19T13:45:13.278Z,98591.38
2023-05-19T13:47:40.500Z,98592.23
2023-05-19T13:50:08.010Z,98586.64
2023-05-19T13:52:35.572Z,98586.02
2023-05-19T13:55:03.262Z,98588.14
2023-05-19T13:57:30.806Z,98587.72
2023-05-19T14:00:03.280Z,98590.73
2023-05-19T14:02:31.133Z,98586.81
2023-05-19T14:04:58.782Z,98589.84
2023-05-19T14:07:27.786Z,98593.21
2023-05-19T14:09:55.874Z,98593.92
2023-05-19T14:12:27.619Z,98595.45
2023-05-19T14:14:58.861Z,98600.29
2023-05-19T14:17:28.863Z,98598.33
2023-05-19T14:19:56.146Z,98600.00
2023-05-19T14:22:23.422Z,98604.54
2023-05-19T14:24:50.562Z,98605.33
2023-05-19T14:27:17.637Z,98608.65
2023-05-19T14:29:45.410Z,98611.61
2023-05-19T14:32:13.937Z,98611.89
2023-05-19T14:34:41.336Z,98613.09
2023-05-19T14:37:08.601Z,98615.84
2023-05-19T14:39:35.820Z,98614.29
2023-05-19T14:42:03.017Z,98616.34
2023-05-19T14:44:32.177Z,98617.16
2023-05-19T14:47:01.589Z,98618.80
2023-05-19T14:49:28.825Z,98617.71
2023-05-19T14:51:56.681Z,98618.73
2023-05-19T14:54:23.926Z,98618.23
2023-05-19T14:56:51.157Z,98620.67
2023-05-19T14:59:18.715Z,98619.77
2023-05-19T15:01:46.117Z,98620.50
2023-05-19T15:04:16.130Z,98613.95
2023-05-19T15:06:44.337Z,98612.67
2023-05-19T15:09:14.969Z,98613.92
2023-05-19T15:11:42.091Z,98615.13
2023-05-19T15:14:09.667Z,98612.58
2023-05-19T15:16:36.652Z,98613.30
2023-05-19T15:19:03.702Z,98615.20
2023-05-19T15:21:31.610Z,98611.17
2023-05-19T15:24:00.456Z,98611.15
2023-05-19T15:26:29.855Z,98608.34
2023-05-19T15:28:57.240Z,98610.30
2023-05-19T15:31:24.367Z,98608.64
2023-05-19T15:33:52.019Z,98605.66
2023-05-19T15:36:19.267Z,98608.98
2023-05-19T15:38:46.576Z,98611.00
2023-05-19T15:41:14.450Z,98607.77
2023-05-19T15:43:42.000Z,98607.56
2023-05-19T15:46:09.265Z,98608.02
2023-05-19T15:48:37.157Z,98610.89
2023-05-19T15:51:04.617Z,98609.24
2023-05-19T15:53:32.003Z,98612.59
2023-05-19T15:55:59.680Z,98611.73
2023-05-19T15:58:26.978Z,98610.75
2023-05-19T16:00:54.292Z,98608.70
2023-05-19T16:03:22.740Z,98610.89
2023-05-19T16:05:49.921Z,98605.48
2023-05-19T16:08:17.132Z,98606.08
2023-05-19T16:10:44.522Z,98609.18
2023-05-19T16:13:12.328Z,98606.14
2023-05-19T16:15:39.257Z,98607.21
2023-05-19T16:18:06.849Z,98608.77
2023-05-19T16:20:34.395Z,98612.85
2023-05-19T16:23:02.237Z,98614.31
2023-05-19T16:25:29.506Z,98613.10
2023-05-19T16:27:56.734Z,98614.00
2023-05-19T16:30:24.877Z,98615.65
2023-05-19T16:32:53.520Z,98617.19
2023-05-19T16:35:21.854Z,98616.13
2023-05-19T16:37:49.536Z,98617.61
2023-05-19T16:40:16.889Z,98620.55
2023-05-19T16:42:44.426Z,98617.47
2023-05-19T16:45:12.136Z,98614.95
2023-05-19T16:47:39.220Z,98622.39
2023-05-19T16:50:07.493Z,98619.65
2023-05-19T16:52:34.775Z,98617.73
2023-05-19T16:55:01.989Z,98616.66
2023-05-19T16:57:29.147Z,98618.70
2023-05-19T16:59:56.321Z,98616.02
2023-05-19T17:02:23.615Z,98618.14
2023-05-19T17:04:51.230Z,98616.24
2023-05-19T17:07:18.671Z,98616.83
2023-05-19T17:09:45.829Z,98616.52
2023-05-19T17:12:13.848Z,98617.47
2023-05-19T17:14:43.319Z,98616.64
2023-05-19T17:17:10.701Z,98615.36
2023-05-19T17:19:38.100Z,98617.44
2023-05-19T17:22:05.775Z,98616.94
2023-05-19T17:24:33.634Z,98615.02
2023-05-19T17:27:01.299Z,98618.04
2023-05-19T17:29:28.522Z,98617.30
2023-05-19T17:31:56.094Z,98612.86
2023-05-19T17:34:24.663Z,98615.52
2023-05-19T17:36:52.398Z,98617.77
2023-05-19T17:39:20.764Z,98616.99
2023-05-19T17:41:48.053Z,98621.30
2023-05-19T17:44:15.540Z,98623.80
2023-05-19T17:46:42.806Z,98625.23
2023-05-19T17:49:11.227Z,98621.89
2023-05-19T17:51:38.494Z,98628.73
2023-05-19T17:54:06.183Z,98633.36
2023-05-19T17:56:34.718Z,98633.20
2023-05-19T17:59:02.323Z,98641.27
2023-05-19T18:01:29.759Z,98647.28
2023-05-19T18:03:57.211Z,98646.38
2023-05-19T18:06:25.603Z,98645.86
2023-05-19T18:08:55.347Z,98647.13
2023-05-19T18:11:23.093Z,98647.20
2023-05-19T18:13:51.308Z,98643.43
2023-05-19T18:16:19.150Z,98644.48
2023-05-19T18:18:50.757Z,98642.44
2023-05-19T18:21:18.860Z,98645.95
2023-05-19T18:23:47.114Z,98646.92
2023-05-19T18:26:14.692Z,98650.46
2023-05-19T18:28:43.434Z,98652.51
2023-05-19T18:31:15.960Z,98650.86
2023-05-19T18:33:44.169Z,98654.64
2023-05-19T18:36:16.841Z,98656.54
2023-05-19T18:38:44.311Z,98660.20
2023-05-19T18:41:14.525Z,98665.87
2023-05-19T18:43:42.470Z,98663.30
2023-05-19T18:46:09.645Z,98659.60
2023-05-19T18:48:37.316Z,98660.15
2023-05-19T18:51:05.718Z,98666.42
2023-05-19T18:53:36.678Z,98665.14
2023-05-19T18:56:04.826Z,98664.91
2023-05-19T18:58:32.762Z,98667.84
2023-05-19T19:00:59.993Z,98668.81
2023-05-19T19:03:28.936Z,98668.88
2023-05-19T19:05:57.659Z,98672.16
2023-05-19T19:08:25.103Z,98678.45
2023-05-19T19:10:52.648Z,98683.45
2023-05-19T19:13:20.768Z,98684.65
2023-05-19T19:15:47.921Z,98689.44
2023-05-19T19:18:15.726Z,98694.13
2023-05-19T19:20:42.985Z,98696.64
2023-05-19T19:23:10.043Z,98700.14
2023-05-19T19:25:38.533Z,98694.80
2023-05-19T19:28:05.565Z,98690.60
2023-05-19T19:30:33.157Z,98687.71
2023-05-19T19:33:01.762Z,98691.77
2023-05-19T19:35:31.040Z,98687.59
2023-05-19T19:37:59.157Z,98688.83
2023-05-19T19:40:27.000Z,98691.27
2023-05-19T19:42:55.060Z,98688.73
2023-05-19T19:45:22.202Z,98689.39
2023-05-19T19:47:50.080Z,98685.87
2023-05-19T19:53:05.015Z,98684.58
2023-05-19T19:55:32.585Z,98682.81
2023-05-19T19:57:59.717Z,98680.98
2023-05-19T20:00:27.074Z,98677.55
2023-05-19T20:03:03.770Z,98678.55
2023-05-19T20:05:32.399Z,98676.64
2023-05-19T20:07:59.963Z,98682.41
2023-05-19T20:10:27.378Z,98679.48
2023-05-19T20:12:54.989Z,98675.84
2023-05-19T20:15:22.598Z,98678.18
2023-05-19T20:17:50.150Z,98683.77
2023-05-19T20:20:17.971Z,98681.97
2023-05-19T20:22:46.453Z,98677.59
2023-05-19T20:25:13.954Z,98682.39
2023-05-19T20:27:41.656Z,98684.59
2023-05-19T20:30:09.633Z,98684.77
2023-05-19T20:32:37.139Z,98687.62
2023-05-19T20:35:05.402Z,98688.41
2023-05-19T20:37:32.958Z,98686.68
2023-05-19T20:40:00.514Z,98682.31
2023-05-19T20:42:27.764Z,98680.27
2023-05-19T20:44:55.140Z,98680.04
2023-05-19T20:47:22.617Z,98675.86
2023-05-19T20:49:50.786Z,98667.70
2023-05-19T20:52:18.935Z,98660.86
2023-05-19T20:54:46.988Z,98656.98
2023-05-19T20:57:14.499Z,98660.58
2023-05-19T20:59:41.955Z,98656.79
2023-05-19T21:02:10.593Z,98661.25
2023-05-19T21:04:38.933Z,98660.66
2023-05-19T21:07:06.613Z,98659.35
2023-05-19T21:09:34.085Z,98663.77
2023-05-19T21:12:01.547Z,98664.51
2023-05-19T21:14:29.021Z,98663.27
2023-05-19T21:16:56.586Z,98667.48
2023-05-19T21:19:23.991Z,98666.93
2023-05-19T21:21:51.501Z,98666.83
2023-05-19T21:24:18.763Z,98670.59
2023-05-19T21:26:46.011Z,98665.80
2023-05-19T21:29:13.411Z,98667.60
2023-05-19T21:31:40.962Z,98666.84
2023-05-19T21:34:08.344Z,98667.06
2023-05-19T21:36:36.653Z,98666.39
2023-05-19T21:39:04.821Z,98667.84
2023-05-19T21:41:32.852Z,98672.08
2023-05-19T21:44:00.124Z,98677.75
2023-05-19T21:46:29.541Z,98678.02
2023-05-19T21:48:56.925Z,98679.36
2023-05-19T21:51:24.241Z,98679.72
2023-05-19T21:53:51.498Z,98684.89
2023-05-19T21:56:18.844Z,98680.92
2023-05-19T21:58:46.702Z,98679.05
2023-05-19T22:01:14.806Z,98681.25
2023-05-19T22:03:42.390Z,98680.97
2023-05-19T22:06:09.847Z,98680.75
2023-05-19T22:08:37.269Z,98678.72
2023-05-19T22:11:04.772Z,98671.70
2023-05-19T22:13:32.657Z,98669.39
2023-05-19T22:16:00.134Z,98668.22
2023-05-19T22:18:27.480Z,98667.32
2023-05-19T22:20:55.138Z,98665.00
2023-05-19T22:23:22.411Z,98661.81
2023-05-19T22:25:50.150Z,98659.36
2023-05-19T22:28:18.227Z,98661.33
2023-05-19T22:30:45.694Z,98659.23
2023-05-19T22:33:13.501Z,98659.45
2023-05-19T22:35:40.995Z,98659.99
2023-05-19T22:38:10.524Z,98657.27
2023-05-19T22:40:38.386Z,98657.86
2023-05-19T22:43:06.245Z,98661.35
2023-05-19T22:45:35.106Z,98654.55
2023-05-19T22:48:03.397Z,98653.13
2023-05-19T22:50:30.581Z,98653.42
2023-05-19T22:52:58.211Z,98648.90
2023-05-19T22:55:25.789Z,98639.31
2023-05-19T22:57:53.159Z,98640.82
2023-05-19T23:00:21.469Z,98640.58
2023-05-19T23:02:49.117Z,98639.66
2023-05-19T23:05:16.865Z,98634.36
2023-05-19T23:07:44.204Z,98634.01
2023-05-19T23:10:11.808Z,98631.50
2023-05-19T23:12:40.350Z,98631.79
2023-05-19T23:15:10.003Z,98630.56
2023-05-19T23:17:37.816Z,98630.27
2023-05-19T23:20:06.286Z,98628.30
2023-05-19T23:22:33.529Z,98630.19
2023-05-19T23:25:02.439Z,98635.05
2023-05-19T23:27:30.099Z,98637.51
2023-05-19T23:29:57.519Z,98638.23
2023-05-19T23:32:24.989Z,98639.95
2023-05-19T23:34:52.283Z,98639.93
2023-05-19T23:37:19.681Z,98640.55
2023-05-19T23:39:46.999Z,98637.11
2023-05-19T23:42:14.340Z,98641.43
2023-05-19T23:44:41.675Z,98643.16
2023-05-19T23:47:09.856Z,98640.40
2023-05-19T23:49:37.461Z,98637.13
2023-05-19T23:52:04.782Z,98634.91
2023-05-19T23:54:32.532Z,98632.70
2023-05-19T23:57:00.389Z,98631.05
2023-05-19T23:59:27.857Z,98631.27
